sensor_id;sensor_type;location;lat;lon;timestamp;P1;durP1;ratioP1;P2;durP2;ratioP2
33836;SDS011;20140;49.356;8.812;2023-06-14T00:01:51;6.47;;;4.43;;
33836;SDS011;20140;49.356;8.812;2023-06-14T00:04:16;4.67;;;4.23;;
33836;SDS011;20140;49.356;8.812;2023-06-14T00:06:42;4.77;;;4.23;;
33836;SDS011;20140;49.356;8.812;2023-06-14T00:09:10;6.40;;;4.10;;
33836;SDS011;20140;49.356;8.812;2023-06-14T00:11:38;5.55;;;3.70;;
33836;SDS011;20140;49.356;8.812;2023-06-14T00:14:04;7.10;;;4.23;;
33836;SDS011;20140;49.356;8.812;2023-06-14T00:16:30;6.60;;;4.35;;
33836;SDS011;20140;49.356;8.812;2023-06-14T00:18:57;6.10;;;4.45;;
33836;SDS011;20140;49.356;8.812;2023-06-14T00:21:23;5.28;;;4.22;;
33836;SDS011;20140;49.356;8.812;2023-06-14T00:23:48;6.87;;;4.47;;
33836;SDS011;20140;49.356;8.812;2023-06-14T00:26:14;6.22;;;4.00;;
33836;SDS011;20140;49.356;8.812;2023-06-14T00:28:39;4.97;;;4.18;;
33836;SDS011;20140;49.356;8.812;2023-06-14T00:31:06;5.28;;;4.18;;
33836;SDS011;20140;49.356;8.812;2023-06-14T00:33:31;4.57;;;3.73;;
33836;SDS011;20140;49.356;8.812;2023-06-14T00:35:57;5.70;;;4.37;;
33836;SDS011;20140;49.356;8.812;2023-06-14T00:38:22;5.45;;;4.75;;
33836;SDS011;20140;49.356;8.812;2023-06-14T00:40:48;5.33;;;4.20;;
33836;SDS011;20140;49.356;8.812;2023-06-14T00:43:13;6.20;;;4.40;;
33836;SDS011;20140;49.356;8.812;2023-06-14T00:45:39;6.70;;;4.10;;
33836;SDS011;20140;49.356;8.812;2023-06-14T00:48:04;5.77;;;4.30;;
33836;SDS011;20140;49.356;8.812;2023-06-14T00:50:32;4.80;;;4.10;;
33836;SDS011;20140;49.356;8.812;2023-06-14T00:52:58;6.25;;;5.03;;
33836;SDS011;20140;49.356;8.812;2023-06-14T00:55:25;6.03;;;4.30;;
33836;SDS011;20140;49.356;8.812;2023-06-14T00:57:51;6.32;;;4.20;;
33836;SDS011;20140;49.356;8.812;2023-06-14T01:00:17;6.72;;;4.05;;
33836;SDS011;20140;49.356;8.812;2023-06-14T01:02:43;5.10;;;4.20;;
33836;SDS011;20140;49.356;8.812;2023-06-14T01:05:08;5.20;;;4.70;;
33836;SDS011;20140;49.356;8.812;2023-06-14T01:10:42;4.22;;;3.83;;
33836;SDS011;20140;49.356;8.812;2023-06-14T01:13:21;5.70;;;4.43;;
33836;SDS011;20140;49.356;8.812;2023-06-14T01:15:53;5.10;;;3.85;;
33836;SDS011;20140;49.356;8.812;2023-06-14T01:18:20;6.88;;;4.28;;
33836;SDS011;20140;49.356;8.812;2023-06-14T01:20:49;4.80;;;3.67;;
33836;SDS011;20140;49.356;8.812;2023-06-14T01:23:18;4.80;;;4.33;;
33836;SDS011;20140;49.356;8.812;2023-06-14T01:25:45;6.68;;;4.30;;
33836;SDS011;20140;49.356;8.812;2023-06-14T01:28:12;4.90;;;4.22;;
33836;SDS011;20140;49.356;8.812;2023-06-14T01:30:41;6.10;;;4.80;;
33836;SDS011;20140;49.356;8.812;2023-06-14T01:33:13;5.88;;;4.13;;
33836;SDS011;20140;49.356;8.812;2023-06-14T01:35:44;6.60;;;4.20;;
33836;SDS011;20140;49.356;8.812;2023-06-14T01:38:12;5.90;;;4.70;;
33836;SDS011;20140;49.356;8.812;2023-06-14T01:40:39;4.95;;;4.38;;
33836;SDS011;20140;49.356;8.812;2023-06-14T01:43:07;5.28;;;4.78;;
33836;SDS011;20140;49.356;8.812;2023-06-14T01:45:34;4.95;;;4.03;;
33836;SDS011;20140;49.356;8.812;2023-06-14T01:48:00;6.80;;;4.43;;
33836;SDS011;20140;49.356;8.812;2023-06-14T01:50:29;5.55;;;4.43;;
33836;SDS011;20140;49.356;8.812;2023-06-14T01:52:55;5.18;;;4.68;;
33836;SDS011;20140;49.356;8.812;2023-06-14T01:55:21;6.50;;;4.50;;
33836;SDS011;20140;49.356;8.812;2023-06-14T01:57:47;5.83;;;4.57;;
33836;SDS011;20140;49.356;8.812;2023-06-14T02:00:13;5.50;;;4.45;;
33836;SDS011;20140;49.356;8.812;2023-06-14T02:02:39;7.22;;;4.63;;
33836;SDS011;20140;49.356;8.812;2023-06-14T02:05:05;5.97;;;4.10;;
33836;SDS011;20140;49.356;8.812;2023-06-14T02:07:31;5.35;;;4.70;;
33836;SDS011;20140;49.356;8.812;2023-06-14T02:09:57;5.38;;;4.88;;
33836;SDS011;20140;49.356;8.812;2023-06-14T02:12:22;6.93;;;5.13;;
33836;SDS011;20140;49.356;8.812;2023-06-14T02:14:48;5.13;;;4.63;;
33836;SDS011;20140;49.356;8.812;2023-06-14T02:17:14;5.40;;;4.90;;
33836;SDS011;20140;49.356;8.812;2023-06-14T02:19:40;5.30;;;4.80;;
33836;SDS011;20140;49.356;8.812;2023-06-14T02:22:05;7.72;;;5.13;;
33836;SDS011;20140;49.356;8.812;2023-06-14T02:24:31;5.72;;;4.78;;
33836;SDS011;20140;49.356;8.812;2023-06-14T02:26:57;4.78;;;4.30;;
33836;SDS011;20140;49.356;8.812;2023-06-14T02:29:22;6.43;;;4.88;;
33836;SDS011;20140;49.356;8.812;2023-06-14T02:31:48;7.80;;;4.80;;
33836;SDS011;20140;49.356;8.812;2023-06-14T02:34:14;5.50;;;4.78;;
33836;SDS011;20140;49.356;8.812;2023-06-14T02:36:41;4.68;;;4.22;;
33836;SDS011;20140;49.356;8.812;2023-06-14T02:39:08;7.05;;;5.15;;
33836;SDS011;20140;49.356;8.812;2023-06-14T02:41:36;6.68;;;4.40;;
33836;SDS011;20140;49.356;8.812;2023-06-14T02:44:02;5.60;;;4.93;;
33836;SDS011;20140;49.356;8.812;2023-06-14T02:46:28;9.82;;;5.28;;
33836;SDS011;20140;49.356;8.812;2023-06-14T02:48:54;6.77;;;5.10;;
33836;SDS011;20140;49.356;8.812;2023-06-14T02:51:19;5.97;;;4.43;;
33836;SDS011;20140;49.356;8.812;2023-06-14T02:53:45;5.75;;;4.50;;
33836;SDS011;20140;49.356;8.812;2023-06-14T02:56:10;5.93;;;5.07;;
33836;SDS011;20140;49.356;8.812;2023-06-14T02:58:37;8.63;;;5.13;;
33836;SDS011;20140;49.356;8.812;2023-06-14T03:01:02;9.27;;;5.70;;
33836;SDS011;20140;49.356;8.812;2023-06-14T03:03:32;7.88;;;5.65;;
33836;SDS011;20140;49.356;8.812;2023-06-14T03:05:58;5.45;;;4.68;;
33836;SDS011;20140;49.356;8.812;2023-06-14T03:08:30;6.20;;;5.05;;
33836;SDS011;20140;49.356;8.812;2023-06-14T03:10:56;8.68;;;5.60;;
33836;SDS011;20140;49.356;8.812;2023-06-14T03:13:22;5.70;;;5.07;;
33836;SDS011;20140;49.356;8.812;2023-06-14T03:15:48;6.13;;;5.20;;
33836;SDS011;20140;49.356;8.812;2023-06-14T03:18:16;9.38;;;6.90;;
33836;SDS011;20140;49.356;8.812;2023-06-14T03:20:42;8.77;;;5.85;;
33836;SDS011;20140;49.356;8.812;2023-06-14T03:23:10;6.07;;;5.47;;
33836;SDS011;20140;49.356;8.812;2023-06-14T03:25:36;6.05;;;5.45;;
33836;SDS011;20140;49.356;8.812;2023-06-14T03:28:03;7.15;;;5.63;;
33836;SDS011;20140;49.356;8.812;2023-06-14T03:30:29;6.63;;;5.35;;
33836;SDS011;20140;49.356;8.812;2023-06-14T03:32:55;5.80;;;5.22;;
33836;SDS011;20140;49.356;8.812;2023-06-14T03:35:21;5.68;;;4.70;;
33836;SDS011;20140;49.356;8.812;2023-06-14T03:37:47;6.30;;;4.70;;
33836;SDS011;20140;49.356;8.812;2023-06-14T03:40:14;5.57;;;5.07;;
33836;SDS011;20140;49.356;8.812;2023-06-14T03:42:41;7.22;;;5.82;;
33836;SDS011;20140;49.356;8.812;2023-06-14T03:45:07;8.03;;;5.27;;
33836;SDS011;20140;49.356;8.812;2023-06-14T03:47:33;5.70;;;5.10;;
33836;SDS011;20140;49.356;8.812;2023-06-14T03:49:59;6.90;;;5.43;;
33836;SDS011;20140;49.356;8.812;2023-06-14T03:52:26;5.38;;;4.68;;
33836;SDS011;20140;49.356;8.812;2023-06-14T03:54:52;6.75;;;5.38;;
33836;SDS011;20140;49.356;8.812;2023-06-14T03:57:17;5.40;;;4.90;;
33836;SDS011;20140;49.356;8.812;2023-06-14T03:59:43;7.00;;;5.40;;
33836;SDS011;20140;49.356;8.812;2023-06-14T04:02:09;5.67;;;4.87;;
33836;SDS011;20140;49.356;8.812;2023-06-14T04:04:35;6.55;;;5.88;;
33836;SDS011;20140;49.356;8.812;2023-06-14T04:07:01;6.40;;;5.45;;
33836;SDS011;20140;49.356;8.812;2023-06-14T04:09:28;8.05;;;5.53;;
33836;SDS011;20140;49.356;8.812;2023-06-14T04:11:56;5.95;;;4.82;;
33836;SDS011;20140;49.356;8.812;2023-06-14T04:14:22;6.60;;;5.77;;
33836;SDS011;20140;49.356;8.812;2023-06-14T04:16:48;6.93;;;5.47;;
33836;SDS011;20140;49.356;8.812;2023-06-14T04:19:17;7.10;;;5.50;;
33836;SDS011;20140;49.356;8.812;2023-06-14T04:21:43;5.53;;;4.90;;
33836;SDS011;20140;49.356;8.812;2023-06-14T04:24:08;4.80;;;4.37;;
33836;SDS011;20140;49.356;8.812;2023-06-14T04:26:41;5.80;;;5.30;;
33836;SDS011;20140;49.356;8.812;2023-06-14T04:29:09;6.55;;;5.05;;
33836;SDS011;20140;49.356;8.812;2023-06-14T04:31:44;6.47;;;4.90;;
33836;SDS011;20140;49.356;8.812;2023-06-14T04:34:11;5.15;;;4.43;;
33836;SDS011;20140;49.356;8.812;2023-06-14T04:36:43;5.47;;;4.53;;
33836;SDS011;20140;49.356;8.812;2023-06-14T04:39:18;5.43;;;4.43;;
33836;SDS011;20140;49.356;8.812;2023-06-14T04:41:44;5.20;;;4.50;;
33836;SDS011;20140;49.356;8.812;2023-06-14T04:44:10;6.13;;;5.05;;
33836;SDS011;20140;49.356;8.812;2023-06-14T04:46:37;4.95;;;4.35;;
33836;SDS011;20140;49.356;8.812;2023-06-14T04:49:10;7.10;;;4.70;;
33836;SDS011;20140;49.356;8.812;2023-06-14T04:51:43;6.45;;;4.85;;
33836;SDS011;20140;49.356;8.812;2023-06-14T04:54:09;6.35;;;5.00;;
33836;SDS011;20140;49.356;8.812;2023-06-14T04:56:37;6.90;;;5.00;;
33836;SDS011;20140;49.356;8.812;2023-06-14T04:59:03;5.30;;;4.80;;
33836;SDS011;20140;49.356;8.812;2023-06-14T05:01:32;7.35;;;4.95;;
33836;SDS011;20140;49.356;8.812;2023-06-14T05:03:58;7.88;;;5.55;;
33836;SDS011;20140;49.356;8.812;2023-06-14T05:06:24;5.33;;;4.30;;
33836;SDS011;20140;49.356;8.812;2023-06-14T05:08:49;11.20;;;5.33;;
33836;SDS011;20140;49.356;8.812;2023-06-14T05:11:15;7.05;;;4.38;;
33836;SDS011;20140;49.356;8.812;2023-06-14T05:13:42;6.57;;;4.72;;
33836;SDS011;20140;49.356;8.812;2023-06-14T05:16:08;5.07;;;4.55;;
33836;SDS011;20140;49.356;8.812;2023-06-14T05:18:34;5.20;;;4.00;;
33836;SDS011;20140;49.356;8.812;2023-06-14T05:21:01;5.80;;;4.37;;
33836;SDS011;20140;49.356;8.812;2023-06-14T05:23:26;6.00;;;4.35;;
33836;SDS011;20140;49.356;8.812;2023-06-14T05:25:52;4.90;;;4.40;;
33836;SDS011;20140;49.356;8.812;2023-06-14T05:28:18;7.32;;;4.57;;
33836;SDS011;20140;49.356;8.812;2023-06-14T05:30:43;5.03;;;4.53;;
33836;SDS011;20140;49.356;8.812;2023-06-14T05:33:09;5.60;;;4.32;;
33836;SDS011;20140;49.356;8.812;2023-06-14T05:35:34;7.37;;;4.40;;
33836;SDS011;20140;49.356;8.812;2023-06-14T05:38:00;6.77;;;4.70;;
33836;SDS011;20140;49.356;8.812;2023-06-14T05:40:26;8.90;;;5.03;;
33836;SDS011;20140;49.356;8.812;2023-06-14T05:42:51;5.57;;;4.50;;
33836;SDS011;20140;49.356;8.812;2023-06-14T05:45:17;7.97;;;4.27;;
33836;SDS011;20140;49.356;8.812;2023-06-14T05:47:43;8.95;;;4.72;;
33836;SDS011;20140;49.356;8.812;2023-06-14T05:50:08;5.93;;;4.10;;
33836;SDS011;20140;49.356;8.812;2023-06-14T05:52:34;5.85;;;4.55;;
33836;SDS011;20140;49.356;8.812;2023-06-14T05:55:01;6.78;;;4.38;;
33836;SDS011;20140;49.356;8.812;2023-06-14T05:57:28;5.68;;;4.38;;
33836;SDS011;20140;49.356;8.812;2023-06-14T05:59:53;6.40;;;4.40;;
33836;SDS011;20140;49.356;8.812;2023-06-14T06:02:19;8.40;;;5.07;;
33836;SDS011;20140;49.356;8.812;2023-06-14T06:04:45;6.33;;;4.40;;
33836;SDS011;20140;49.356;8.812;2023-06-14T06:07:10;6.40;;;4.80;;
33836;SDS011;20140;49.356;8.812;2023-06-14T06:09:36;6.88;;;4.20;;
33836;SDS011;20140;49.356;8.812;2023-06-14T06:12:02;6.13;;;4.20;;
33836;SDS011;20140;49.356;8.812;2023-06-14T06:14:27;7.50;;;4.23;;
33836;SDS011;20140;49.356;8.812;2023-06-14T06:16:53;5.57;;;4.60;;
33836;SDS011;20140;49.356;8.812;2023-06-14T06:19:19;11.63;;;4.85;;
33836;SDS011;20140;49.356;8.812;2023-06-14T06:21:45;7.28;;;4.63;;
33836;SDS011;20140;49.356;8.812;2023-06-14T06:24:11;5.25;;;3.97;;
33836;SDS011;20140;49.356;8.812;2023-06-14T06:26:36;6.80;;;4.40;;
33836;SDS011;20140;49.356;8.812;2023-06-14T06:29:02;7.40;;;4.30;;
33836;SDS011;20140;49.356;8.812;2023-06-14T06:31:28;5.30;;;3.80;;
33836;SDS011;20140;49.356;8.812;2023-06-14T06:33:54;8.40;;;4.10;;
33836;SDS011;20140;49.356;8.812;2023-06-14T06:36:20;7.13;;;4.43;;
33836;SDS011;20140;49.356;8.812;2023-06-14T06:38:46;7.22;;;4.13;;
33836;SDS011;20140;49.356;8.812;2023-06-14T06:41:12;6.83;;;4.63;;
33836;SDS011;20140;49.356;8.812;2023-06-14T06:43:37;4.93;;;4.37;;
33836;SDS011;20140;49.356;8.812;2023-06-14T06:46:03;7.10;;;4.77;;
33836;SDS011;20140;49.356;8.812;2023-06-14T06:48:28;4.40;;;4.00;;
33836;SDS011;20140;49.356;8.812;2023-06-14T06:50:54;4.70;;;4.05;;
33836;SDS011;20140;49.356;8.812;2023-06-14T06:53:20;4.53;;;3.73;;
33836;SDS011;20140;49.356;8.812;2023-06-14T06:55:45;6.32;;;5.22;;
33836;SDS011;20140;49.356;8.812;2023-06-14T06:58:11;6.97;;;4.30;;
33836;SDS011;20140;49.356;8.812;2023-06-14T07:00:37;4.60;;;3.70;;
33836;SDS011;20140;49.356;8.812;2023-06-14T07:03:03;6.20;;;4.00;;
33836;SDS011;20140;49.356;8.812;2023-06-14T07:05:28;6.70;;;4.07;;
33836;SDS011;20140;49.356;8.812;2023-06-14T07:07:54;4.70;;;4.30;;
33836;SDS011;20140;49.356;8.812;2023-06-14T07:10:20;4.35;;;3.95;;
33836;SDS011;20140;49.356;8.812;2023-06-14T07:12:46;4.60;;;4.20;;
33836;SDS011;20140;49.356;8.812;2023-06-14T07:15:12;4.87;;;4.40;;
33836;SDS011;20140;49.356;8.812;2023-06-14T07:17:37;4.32;;;3.90;;
33836;SDS011;20140;49.356;8.812;2023-06-14T07:20:03;5.87;;;4.20;;
33836;SDS011;20140;49.356;8.812;2023-06-14T07:22:33;10.35;;;4.40;;
33836;SDS011;20140;49.356;8.812;2023-06-14T07:24:58;5.45;;;3.90;;
33836;SDS011;20140;49.356;8.812;2023-06-14T07:27:24;5.87;;;4.33;;
33836;SDS011;20140;49.356;8.812;2023-06-14T07:29:49;5.00;;;4.20;;
33836;SDS011;20140;49.356;8.812;2023-06-14T07:32:15;5.13;;;4.00;;
33836;SDS011;20140;49.356;8.812;2023-06-14T07:34:40;4.68;;;4.15;;
33836;SDS011;20140;49.356;8.812;2023-06-14T07:37:06;7.80;;;4.07;;
33836;SDS011;20140;49.356;8.812;2023-06-14T07:39:32;5.20;;;3.95;;
33836;SDS011;20140;49.356;8.812;2023-06-14T07:41:57;6.70;;;4.47;;
33836;SDS011;20140;49.356;8.812;2023-06-14T07:44:23;4.95;;;4.07;;
33836;SDS011;20140;49.356;8.812;2023-06-14T07:46:48;5.00;;;4.40;;
33836;SDS011;20140;49.356;8.812;2023-06-14T07:49:14;5.47;;;3.93;;
33836;SDS011;20140;49.356;8.812;2023-06-14T07:51:40;6.73;;;4.77;;
33836;SDS011;20140;49.356;8.812;2023-06-14T07:54:05;5.33;;;3.77;;
33836;SDS011;20140;49.356;8.812;2023-06-14T07:56:32;6.60;;;4.63;;
33836;SDS011;20140;49.356;8.812;2023-06-14T07:58:58;4.23;;;3.67;;
33836;SDS011;20140;49.356;8.812;2023-06-14T08:01:23;4.03;;;3.63;;
33836;SDS011;20140;49.356;8.812;2023-06-14T08:03:50;4.60;;;4.10;;
33836;SDS011;20140;49.356;8.812;2023-06-14T08:06:15;6.38;;;4.38;;
33836;SDS011;20140;49.356;8.812;2023-06-14T08:08:41;8.80;;;4.03;;
33836;SDS011;20140;49.356;8.812;2023-06-14T08:11:07;5.37;;;4.40;;
33836;SDS011;20140;49.356;8.812;2023-06-14T08:13:32;4.20;;;3.80;;
33836;SDS011;20140;49.356;8.812;2023-06-14T08:15:58;7.50;;;4.17;;
33836;SDS011;20140;49.356;8.812;2023-06-14T08:18:25;5.28;;;4.70;;
33836;SDS011;20140;49.356;8.812;2023-06-14T08:20:51;4.82;;;4.22;;
33836;SDS011;20140;49.356;8.812;2023-06-14T08:23:17;10.00;;;4.22;;
33836;SDS011;20140;49.356;8.812;2023-06-14T08:25:44;5.75;;;4.25;;
33836;SDS011;20140;49.356;8.812;2023-06-14T08:28:10;4.70;;;4.30;;
33836;SDS011;20140;49.356;8.812;2023-06-14T08:30:35;5.20;;;4.00;;
33836;SDS011;20140;49.356;8.812;2023-06-14T08:33:01;5.20;;;4.17;;
33836;SDS011;20140;49.356;8.812;2023-06-14T08:35:27;5.25;;;4.10;;
33836;SDS011;20140;49.356;8.812;2023-06-14T08:37:52;4.50;;;4.10;;
33836;SDS011;20140;49.356;8.812;2023-06-14T08:40:22;5.87;;;3.90;;
33836;SDS011;20140;49.356;8.812;2023-06-14T08:42:52;6.00;;;4.10;;
33836;SDS011;20140;49.356;8.812;2023-06-14T08:45:19;4.38;;;3.88;;
33836;SDS011;20140;49.356;8.812;2023-06-14T08:47:49;5.68;;;4.22;;
33836;SDS011;20140;49.356;8.812;2023-06-14T08:50:22;4.13;;;3.58;;
33836;SDS011;20140;49.356;8.812;2023-06-14T08:52:53;21.48;;;4.85;;
33836;SDS011;20140;49.356;8.812;2023-06-14T08:55:20;4.68;;;4.00;;
33836;SDS011;20140;49.356;8.812;2023-06-14T08:57:53;6.40;;;4.30;;
33836;SDS011;20140;49.356;8.812;2023-06-14T09:00:20;6.85;;;4.15;;
33836;SDS011;20140;49.356;8.812;2023-06-14T09:02:46;6.07;;;4.10;;
33836;SDS011;20140;49.356;8.812;2023-06-14T09:05:12;4.38;;;3.92;;
33836;SDS011;20140;49.356;8.812;2023-06-14T09:07:39;6.75;;;3.97;;
33836;SDS011;20140;49.356;8.812;2023-06-14T09:10:07;4.53;;;4.00;;
33836;SDS011;20140;49.356;8.812;2023-06-14T09:12:35;6.50;;;4.30;;
33836;SDS011;20140;49.356;8.812;2023-06-14T09:15:00;5.78;;;3.97;;
33836;SDS011;20140;49.356;8.812;2023-06-14T09:17:30;10.97;;;4.50;;
33836;SDS011;20140;49.356;8.812;2023-06-14T09:19:58;6.93;;;4.03;;
33836;SDS011;20140;49.356;8.812;2023-06-14T09:22:24;4.93;;;3.97;;
33836;SDS011;20140;49.356;8.812;2023-06-14T09:24:49;6.03;;;3.43;;
33836;SDS011;20140;49.356;8.812;2023-06-14T09:27:15;5.38;;;4.15;;
33836;SDS011;20140;49.356;8.812;2023-06-14T09:29:41;4.68;;;4.00;;
33836;SDS011;20140;49.356;8.812;2023-06-14T09:32:06;4.30;;;3.43;;
33836;SDS011;20140;49.356;8.812;2023-06-14T09:34:32;3.88;;;3.40;;
33836;SDS011;20140;49.356;8.812;2023-06-14T09:36:59;4.38;;;3.47;;
33836;SDS011;20140;49.356;8.812;2023-06-14T09:39:25;6.45;;;3.30;;
33836;SDS011;20140;49.356;8.812;2023-06-14T09:41:52;4.18;;;3.40;;
33836;SDS011;20140;49.356;8.812;2023-06-14T09:44:17;5.27;;;3.57;;
33836;SDS011;20140;49.356;8.812;2023-06-14T09:46:45;7.53;;;3.37;;
33836;SDS011;20140;49.356;8.812;2023-06-14T09:49:11;4.20;;;3.53;;
33836;SDS011;20140;49.356;8.812;2023-06-14T09:51:42;6.37;;;4.50;;
33836;SDS011;20140;49.356;8.812;2023-06-14T09:54:13;3.47;;;3.13;;
33836;SDS011;20140;49.356;8.812;2023-06-14T09:56:41;3.85;;;3.20;;
33836;SDS011;20140;49.356;8.812;2023-06-14T09:59:10;3.55;;;2.85;;
33836;SDS011;20140;49.356;8.812;2023-06-14T10:01:41;4.93;;;3.13;;
33836;SDS011;20140;49.356;8.812;2023-06-14T10:04:07;4.10;;;2.80;;
33836;SDS011;20140;49.356;8.812;2023-06-14T10:06:41;4.07;;;2.95;;
33836;SDS011;20140;49.356;8.812;2023-06-14T10:09:10;3.88;;;3.20;;
33836;SDS011;20140;49.356;8.812;2023-06-14T10:11:36;5.85;;;3.30;;
33836;SDS011;20140;49.356;8.812;2023-06-14T10:14:04;4.00;;;2.63;;
33836;SDS011;20140;49.356;8.812;2023-06-14T10:16:31;5.03;;;3.47;;
33836;SDS011;20140;49.356;8.812;2023-06-14T10:19:15;5.60;;;3.42;;
33836;SDS011;20140;49.356;8.812;2023-06-14T10:22:05;4.28;;;3.28;;
33836;SDS011;20140;49.356;8.812;2023-06-14T10:24:38;4.97;;;3.35;;
33836;SDS011;20140;49.356;8.812;2023-06-14T10:27:07;5.18;;;3.30;;
33836;SDS011;20140;49.356;8.812;2023-06-14T10:32:21;3.40;;;3.10;;
33836;SDS011;20140;49.356;8.812;2023-06-14T10:34:59;3.60;;;3.25;;
33836;SDS011;20140;49.356;8.812;2023-06-14T10:37:26;3.53;;;3.13;;
33836;SDS011;20140;49.356;8.812;2023-06-14T10:39:52;5.40;;;3.77;;
33836;SDS011;20140;49.356;8.812;2023-06-14T10:42:18;6.60;;;3.88;;
33836;SDS011;20140;49.356;8.812;2023-06-14T10:44:50;4.20;;;3.80;;
33836;SDS011;20140;49.356;8.812;2023-06-14T10:47:22;4.47;;;4.03;;
33836;SDS011;20140;49.356;8.812;2023-06-14T10:50:03;3.97;;;3.30;;
33836;SDS011;20140;49.356;8.812;2023-06-14T10:52:32;4.20;;;3.45;;
33836;SDS011;20140;49.356;8.812;2023-06-14T10:55:13;3.90;;;3.50;;
33836;SDS011;20140;49.356;8.812;2023-06-14T11:00:27;3.60;;;3.30;;
33836;SDS011;20140;49.356;8.812;2023-06-14T11:05:56;4.32;;;2.90;;
33836;SDS011;20140;49.356;8.812;2023-06-14T11:11:07;4.38;;;3.97;;
33836;SDS011;20140;49.356;8.812;2023-06-14T11:13:34;4.82;;;3.65;;
33836;SDS011;20140;49.356;8.812;2023-06-14T11:16:02;5.10;;;3.80;;
33836;SDS011;20140;49.356;8.812;2023-06-14T11:18:38;4.43;;;3.83;;
33836;SDS011;20140;49.356;8.812;2023-06-14T11:21:04;6.33;;;4.63;;
33836;SDS011;20140;49.356;8.812;2023-06-14T11:23:30;6.70;;;4.57;;
33836;SDS011;20140;49.356;8.812;2023-06-14T11:25:56;10.27;;;4.80;;
33836;SDS011;20140;49.356;8.812;2023-06-14T11:28:22;4.53;;;4.13;;
33836;SDS011;20140;49.356;8.812;2023-06-14T11:30:48;4.82;;;3.97;;
33836;SDS011;20140;49.356;8.812;2023-06-14T11:33:24;4.72;;;3.75;;
33836;SDS011;20140;49.356;8.812;2023-06-14T11:35:50;2.77;;;2.27;;
33836;SDS011;20140;49.356;8.812;2023-06-14T11:38:16;7.95;;;4.05;;
33836;SDS011;20140;49.356;8.812;2023-06-14T11:40:42;4.93;;;3.60;;
33836;SDS011;20140;49.356;8.812;2023-06-14T11:43:07;4.63;;;3.72;;
33836;SDS011;20140;49.356;8.812;2023-06-14T11:45:33;3.87;;;3.33;;
33836;SDS011;20140;49.356;8.812;2023-06-14T11:47:58;4.57;;;3.80;;
33836;SDS011;20140;49.356;8.812;2023-06-14T11:50:24;4.68;;;3.42;;
33836;SDS011;20140;49.356;8.812;2023-06-14T11:52:54;6.05;;;4.00;;
33836;SDS011;20140;49.356;8.812;2023-06-14T11:55:32;4.55;;;4.00;;
33836;SDS011;20140;49.356;8.812;2023-06-14T11:58:01;7.33;;;3.93;;
33836;SDS011;20140;49.356;8.812;2023-06-14T12:00:26;6.65;;;4.18;;
33836;SDS011;20140;49.356;8.812;2023-06-14T12:02:53;4.45;;;4.00;;
33836;SDS011;20140;49.356;8.812;2023-06-14T12:05:20;7.60;;;4.45;;
33836;SDS011;20140;49.356;8.812;2023-06-14T12:07:46;6.13;;;4.25;;
33836;SDS011;20140;49.356;8.812;2023-06-14T12:10:13;7.13;;;4.13;;
33836;SDS011;20140;49.356;8.812;2023-06-14T12:12:39;5.93;;;4.22;;
33836;SDS011;20140;49.356;8.812;2023-06-14T12:15:07;5.05;;;4.50;;
33836;SDS011;20140;49.356;8.812;2023-06-14T12:17:34;4.63;;;4.00;;
33836;SDS011;20140;49.356;8.812;2023-06-14T12:20:11;6.30;;;4.28;;
33836;SDS011;20140;49.356;8.812;2023-06-14T12:22:50;4.95;;;4.45;;
33836;SDS011;20140;49.356;8.812;2023-06-14T12:25:28;4.97;;;4.15;;
33836;SDS011;20140;49.356;8.812;2023-06-14T12:27:59;4.43;;;4.03;;
33836;SDS011;20140;49.356;8.812;2023-06-14T12:30:35;5.25;;;4.38;;
33836;SDS011;20140;49.356;8.812;2023-06-14T12:33:02;5.20;;;4.70;;
33836;SDS011;20140;49.356;8.812;2023-06-14T12:35:28;5.23;;;4.47;;
33836;SDS011;20140;49.356;8.812;2023-06-14T12:37:54;4.95;;;4.50;;
33836;SDS011;20140;49.356;8.812;2023-06-14T12:40:20;5.00;;;4.60;;
33836;SDS011;20140;49.356;8.812;2023-06-14T12:42:45;4.90;;;4.50;;
33836;SDS011;20140;49.356;8.812;2023-06-14T12:45:14;5.10;;;4.60;;
33836;SDS011;20140;49.356;8.812;2023-06-14T12:47:40;5.18;;;4.30;;
33836;SDS011;20140;49.356;8.812;2023-06-14T12:50:07;6.00;;;4.25;;
33836;SDS011;20140;49.356;8.812;2023-06-14T12:52:32;4.82;;;4.30;;
33836;SDS011;20140;49.356;8.812;2023-06-14T12:55:04;4.85;;;4.45;;
33836;SDS011;20140;49.356;8.812;2023-06-14T12:57:29;6.57;;;5.60;;
33836;SDS011;20140;49.356;8.812;2023-06-14T12:59:55;5.70;;;5.10;;
33836;SDS011;20140;49.356;8.812;2023-06-14T13:02:20;5.28;;;4.70;;
33836;SDS011;20140;49.356;8.812;2023-06-14T13:04:49;6.10;;;4.63;;
33836;SDS011;20140;49.356;8.812;2023-06-14T13:07:15;6.82;;;4.38;;
33836;SDS011;20140;49.356;8.812;2023-06-14T13:09:44;5.20;;;4.80;;
33836;SDS011;20140;49.356;8.812;2023-06-14T13:12:10;4.93;;;4.30;;
33836;SDS011;20140;49.356;8.812;2023-06-14T13:14:37;6.05;;;4.82;;
33836;SDS011;20140;49.356;8.812;2023-06-14T13:17:03;5.82;;;5.22;;
33836;SDS011;20140;49.356;8.812;2023-06-14T13:19:30;6.18;;;4.78;;
33836;SDS011;20140;49.356;8.812;2023-06-14T13:21:56;5.10;;;4.70;;
33836;SDS011;20140;49.356;8.812;2023-06-14T13:24:21;6.90;;;5.03;;
33836;SDS011;20140;49.356;8.812;2023-06-14T13:26:47;5.80;;;5.20;;
33836;SDS011;20140;49.356;8.812;2023-06-14T13:29:12;5.83;;;5.27;;
33836;SDS011;20140;49.356;8.812;2023-06-14T13:31:38;6.55;;;4.93;;
33836;SDS011;20140;49.356;8.812;2023-06-14T13:34:03;5.57;;;5.07;;
33836;SDS011;20140;49.356;8.812;2023-06-14T13:36:30;6.00;;;5.40;;
33836;SDS011;20140;49.356;8.812;2023-06-14T13:38:56;10.40;;;5.87;;
33836;SDS011;20140;49.356;8.812;2023-06-14T13:41:23;5.57;;;4.90;;
33836;SDS011;20140;49.356;8.812;2023-06-14T13:43:56;5.68;;;5.18;;
33836;SDS011;20140;49.356;8.812;2023-06-14T13:46:22;6.13;;;5.32;;
33836;SDS011;20140;49.356;8.812;2023-06-14T13:48:47;5.43;;;4.60;;
33836;SDS011;20140;49.356;8.812;2023-06-14T13:51:13;6.90;;;5.07;;
33836;SDS011;20140;49.356;8.812;2023-06-14T13:53:38;5.50;;;4.95;;
33836;SDS011;20140;49.356;8.812;2023-06-14T13:56:04;5.97;;;4.95;;
33836;SDS011;20140;49.356;8.812;2023-06-14T13:58:29;6.03;;;5.47;;
33836;SDS011;20140;49.356;8.812;2023-06-14T14:00:55;5.63;;;4.55;;
33836;SDS011;20140;49.356;8.812;2023-06-14T14:03:20;6.40;;;5.63;;
33836;SDS011;20140;49.356;8.812;2023-06-14T14:05:46;4.93;;;4.53;;
33836;SDS011;20140;49.356;8.812;2023-06-14T14:08:12;5.28;;;4.80;;
33836;SDS011;20140;49.356;8.812;2023-06-14T14:10:37;7.97;;;5.50;;
33836;SDS011;20140;49.356;8.812;2023-06-14T14:13:03;5.23;;;4.67;;
33836;SDS011;20140;49.356;8.812;2023-06-14T14:15:28;6.30;;;4.65;;
33836;SDS011;20140;49.356;8.812;2023-06-14T14:17:55;5.40;;;4.80;;
33836;SDS011;20140;49.356;8.812;2023-06-14T14:20:22;4.95;;;4.30;;
33836;SDS011;20140;49.356;8.812;2023-06-14T14:22:48;5.90;;;4.80;;
33836;SDS011;20140;49.356;8.812;2023-06-14T14:25:13;5.47;;;4.97;;
33836;SDS011;20140;49.356;8.812;2023-06-14T14:27:41;5.50;;;5.00;;
33836;SDS011;20140;49.356;8.812;2023-06-14T14:30:07;5.70;;;5.20;;
33836;SDS011;20140;49.356;8.812;2023-06-14T14:32:32;5.90;;;5.30;;
33836;SDS011;20140;49.356;8.812;2023-06-14T14:34:58;6.33;;;4.97;;
33836;SDS011;20140;49.356;8.812;2023-06-14T14:37:23;6.20;;;5.30;;
33836;SDS011;20140;49.356;8.812;2023-06-14T14:39:49;5.70;;;5.10;;
33836;SDS011;20140;49.356;8.812;2023-06-14T14:42:15;5.88;;;5.28;;
33836;SDS011;20140;49.356;8.812;2023-06-14T14:44:41;6.57;;;5.10;;
33836;SDS011;20140;49.356;8.812;2023-06-14T14:47:07;5.10;;;4.70;;
33836;SDS011;20140;49.356;8.812;2023-06-14T14:49:32;5.90;;;4.35;;
33836;SDS011;20140;49.356;8.812;2023-06-14T14:51:58;5.20;;;4.70;;
33836;SDS011;20140;49.356;8.812;2023-06-14T14:54:23;4.72;;;4.40;;
33836;SDS011;20140;49.356;8.812;2023-06-14T14:56:50;4.97;;;4.40;;
33836;SDS011;20140;49.356;8.812;2023-06-14T14:59:16;7.47;;;4.70;;
33836;SDS011;20140;49.356;8.812;2023-06-14T15:01:42;5.30;;;4.90;;